sensor_id;sensor_type;location;lat;lon;timestamp;pressure;altitude;pressure_sealevel;temperature;humidity
17254;BME280;32542;52.832;13.816;2023-04-19T00:01:00;102773.97;;;21.77;46.00
17254;BME280;32542;52.832;13.816;2023-04-19T00:04:04;102770.50;;;21.72;46.10
17254;BME280;32542;52.832;13.816;2023-04-19T00:07:08;102763.41;;;21.71;46.20
17254;BME280;32542;52.832;13.816;2023-04-19T00:10:11;102762.56;;;21.69;46.25
17254;BME280;32542;52.832;13.816;2023-04-19T00:13:15;102755.47;;;21.68;46.20
17254;BME280;32542;52.832;13.816;2023-04-19T00:16:18;102761.72;;;21.67;46.24
17254;BME280;32542;52.832;13.816;2023-04-19T00:19:21;102749.38;;;21.63;46.41
17254;BME280;32542;52.832;13.816;2023-04-19T00:22:24;102744.06;;;21.60;46.47
17254;BME280;32542;52.832;13.816;2023-04-19T00:25:27;102748.53;;;21.61;46.40
17254;BME280;32542;52.832;13.816;2023-04-19T00:28:34;102742.31;;;21.59;46.51
17254;BME280;32542;52.832;13.816;2023-04-19T00:31:37;102750.34;;;21.57;46.51
17254;BME280;32542;52.832;13.816;2023-04-19T00:34:40;102742.31;;;21.59;46.48
17254;BME280;32542;52.832;13.816;2023-04-19T00:37:43;102744.13;;;21.57;46.55
17254;BME280;32542;52.832;13.816;2023-04-19T00:40:47;102738.78;;;21.57;46.48
17254;BME280;32542;52.832;13.816;2023-04-19T00:43:51;102744.06;;;21.60;46.31
17254;BME280;32542;52.832;13.816;2023-04-19T00:46:55;102732.47;;;21.62;46.26
17254;BME280;32542;52.832;13.816;2023-04-19T00:49:58;102728.03;;;21.63;46.27
17254;BME280;32542;52.832;13.816;2023-04-19T00:53:01;102737.72;;;21.67;46.20
17254;BME280;32542;52.832;13.816;2023-04-19T00:56:05;102731.44;;;21.69;46.09
17254;BME280;32542;52.832;13.816;2023-04-19T00:59:10;102719.00;;;21.68;46.16
17254;BME280;32542;52.832;13.816;2023-04-19T01:02:13;102726.13;;;21.68;46.40
17254;BME280;32542;52.832;13.816;2023-04-19T01:05:16;102720.94;;;21.62;46.38
17254;BME280;32542;52.832;13.816;2023-04-19T01:08:19;102727.06;;;21.65;46.16
17254;BME280;32542;52.832;13.816;2023-04-19T01:11:22;102718.25;;;21.62;46.05
17254;BME280;32542;52.832;13.816;2023-04-19T01:14:27;102716.53;;;21.59;46.21
17254;BME280;32542;52.832;13.816;2023-04-19T01:17:30;102719.19;;;21.61;46.18
17254;BME280;32542;52.832;13.816;2023-04-19T01:20:34;102715.66;;;21.59;46.11
17254;BME280;32542;52.832;13.816;2023-04-19T01:23:39;102711.28;;;21.56;46.24
17254;BME280;32542;52.832;13.816;2023-04-19T01:26:42;102706.88;;;21.54;46.29
17254;BME280;32542;52.832;13.816;2023-04-19T01:29:45;102706.88;;;21.54;46.31
17254;BME280;32542;52.832;13.816;2023-04-19T01:32:48;102706.00;;;21.53;46.30
17254;BME280;32542;52.832;13.816;2023-04-19T01:35:51;102697.19;;;21.50;46.49
17254;BME280;32542;52.832;13.816;2023-04-19T01:38:56;102701.56;;;21.54;46.48
17254;BME280;32542;52.832;13.816;2023-04-19T01:41:59;102702.38;;;21.56;46.35
17254;BME280;32542;52.832;13.816;2023-04-19T01:45:04;102694.41;;;21.56;46.43
17254;BME280;32542;52.832;13.816;2023-04-19T01:48:07;102688.97;;;21.59;46.37
17254;BME280;32542;52.832;13.816;2023-04-19T01:51:10;102690.75;;;21.60;46.48
17254;BME280;32542;52.832;13.816;2023-04-19T01:54:14;102679.19;;;21.59;46.44
17254;BME280;32542;52.832;13.816;2023-04-19T01:57:18;102668.63;;;21.55;46.44
17254;BME280;32542;52.832;13.816;2023-04-19T02:00:21;102664.22;;;21.54;46.45
17254;BME280;32542;52.832;13.816;2023-04-19T02:03:24;102670.44;;;21.54;46.52
17254;BME280;32542;52.832;13.816;2023-04-19T02:06:27;102667.78;;;21.53;46.39
17254;BME280;32542;52.832;13.816;2023-04-19T02:09:34;102662.44;;;21.53;46.56
17254;BME280;32542;52.832;13.816;2023-04-19T02:12:37;102657.13;;;21.53;46.44
17254;BME280;32542;52.832;13.816;2023-04-19T02:15:40;102646.47;;;21.53;46.44
17254;BME280;32542;52.832;13.816;2023-04-19T02:18:43;102643.78;;;21.54;nan
17254;BME280;32542;52.832;13.816;2023-04-19T02:21:47;102644.69;;;21.53;46.63
17254;BME280;32542;52.832;13.816;2023-04-19T02:24:51;102641.06;;;21.56;46.53
17254;BME280;32542;52.832;13.816;2023-04-19T02:28:01;102636.63;;;21.55;46.59
17254;BME280;32542;52.832;13.816;2023-04-19T02:31:05;102630.41;;;21.56;46.56
17254;BME280;32542;52.832;13.816;2023-04-19T02:34:08;102630.47;;;21.53;46.59
17254;BME280;32542;52.832;13.816;2023-04-19T02:37:11;102626.94;;;21.51;46.65
17254;BME280;32542;52.832;13.816;2023-04-19T02:40:16;102624.28;;;21.51;46.63
17254;BME280;32542;52.832;13.816;2023-04-19T02:43:19;102622.56;;;21.48;46.66
17254;BME280;32542;52.832;13.816;2023-04-19T02:46:22;102626.16;;;21.47;46.65
17254;BME280;32542;52.832;13.816;2023-04-19T02:49:25;102629.66;;;21.49;46.62
17254;BME280;32542;52.832;13.816;2023-04-19T02:52:28;102618.13;;;21.49;46.72
17254;BME280;32542;52.832;13.816;2023-04-19T02:55:32;102619.00;;;21.49;46.69
17254;BME280;32542;52.832;13.816;2023-04-19T02:58:42;102604.75;;;21.50;46.74
17254;BME280;32542;52.832;13.816;2023-04-19T03:01:46;102602.91;;;21.54;46.55
17254;BME280;32542;52.832;13.816;2023-04-19T03:04:49;102601.09;;;21.56;46.47
17254;BME280;32542;52.832;13.816;2023-04-19T03:07:54;102600.09;;;21.60;46.39
17254;BME280;32542;52.832;13.816;2023-04-19T03:10:58;102592.09;;;21.60;46.37
17254;BME280;32542;52.832;13.816;2023-04-19T03:14:04;102594.72;;;21.61;46.25
17254;BME280;32542;52.832;13.816;2023-04-19T03:17:07;102590.28;;;21.62;46.26
17254;BME280;32542;52.832;13.816;2023-04-19T03:20:11;102597.38;;;21.63;46.18
17254;BME280;32542;52.832;13.816;2023-04-19T03:23:14;102591.13;;;21.64;46.20
17254;BME280;32542;52.832;13.816;2023-04-19T03:26:19;102583.13;;;21.64;46.22
17254;BME280;32542;52.832;13.816;2023-04-19T03:29:26;102580.47;;;21.64;46.18
17254;BME280;32542;52.832;13.816;2023-04-19T03:32:33;102588.41;;;21.65;46.16
17254;BME280;32542;52.832;13.816;2023-04-19T03:35:37;102587.50;;;21.66;46.15
17254;BME280;32542;52.832;13.816;2023-04-19T03:38:44;102583.06;;;21.65;46.05
17254;BME280;32542;52.832;13.816;2023-04-19T03:41:53;102576.88;;;21.65;46.09
17254;BME280;32542;52.832;13.816;2023-04-19T03:45:02;102577.75;;;21.65;46.08
17254;BME280;32542;52.832;13.816;2023-04-19T03:48:08;102578.63;;;21.66;46.10
17254;BME280;32542;52.832;13.816;2023-04-19T03:51:11;102578.63;;;21.66;46.29
17254;BME280;32542;52.832;13.816;2023-04-19T03:54:16;102573.28;;;21.66;45.96
17254;BME280;32542;52.832;13.816;2023-04-19T03:57:20;102574.19;;;21.66;46.02
17254;BME280;32542;52.832;13.816;2023-04-19T04:00:25;102570.63;;;21.66;45.97
17254;BME280;32542;52.832;13.816;2023-04-19T04:03:33;102564.41;;;21.67;46.02
17254;BME280;32542;52.832;13.816;2023-04-19T04:06:38;102566.22;;;21.65;45.98
17254;BME280;32542;52.832;13.816;2023-04-19T04:09:40;102563.56;;;21.65;46.10
17254;BME280;32542;52.832;13.816;2023-04-19T04:12:45;102559.97;;;21.66;46.04
17254;BME280;32542;52.832;13.816;2023-04-19T04:15:54;102557.34;;;21.64;46.06
17254;BME280;32542;52.832;13.816;2023-04-19T04:18:57;102560.00;;;21.64;46.04
17254;BME280;32542;52.832;13.816;2023-04-19T04:22:03;102547.56;;;21.63;46.11
17254;BME280;32542;52.832;13.816;2023-04-19T04:25:10;102546.72;;;21.63;46.07
17254;BME280;32542;52.832;13.816;2023-04-19T04:28:14;102543.13;;;21.64;46.14
17254;BME280;32542;52.832;13.816;2023-04-19T04:31:18;102544.91;;;21.63;46.08
17254;BME280;32542;52.832;13.816;2023-04-19T04:34:22;102539.56;;;21.63;45.99
17254;BME280;32542;52.832;13.816;2023-04-19T04:37:34;102543.13;;;21.64;46.07
17254;BME280;32542;52.832;13.816;2023-04-19T04:40:38;102543.13;;;21.64;46.22
17254;BME280;32542;52.832;13.816;2023-04-19T04:43:43;102537.78;;;21.64;46.13
17254;BME280;32542;52.832;13.816;2023-04-19T04:47:11;102542.25;;;21.63;46.13
17254;BME280;32542;52.832;13.816;2023-04-19T04:50:21;102538.69;;;21.64;46.11
17254;BME280;32542;52.832;13.816;2023-04-19T04:53:24;102532.47;;;21.64;46.08
17254;BME280;32542;52.832;13.816;2023-04-19T04:56:29;102536.06;;;21.63;46.13
17254;BME280;32542;52.832;13.816;2023-04-19T04:59:34;102532.47;;;21.64;46.08
17254;BME280;32542;52.832;13.816;2023-04-19T05:02:37;102532.47;;;21.64;46.14
17254;BME280;32542;52.832;13.816;2023-04-19T05:05:41;102523.56;;;21.65;46.19
17254;BME280;32542;52.832;13.816;2023-04-19T05:08:45;102523.56;;;21.65;46.24
17254;BME280;32542;52.832;13.816;2023-04-19T05:11:54;102523.56;;;21.65;46.23
17254;BME280;32542;52.832;13.816;2023-04-19T05:14:59;102523.56;;;21.65;46.24
17254;BME280;32542;52.832;13.816;2023-04-19T05:18:04;102517.31;;;21.66;46.11
17254;BME280;32542;52.832;13.816;2023-04-19T05:21:08;102512.91;;;21.65;46.09
17254;BME280;32542;52.832;13.816;2023-04-19T05:24:13;102507.56;;;21.65;46.21
17254;BME280;32542;52.832;13.816;2023-04-19T05:27:17;102507.56;;;21.65;46.13
17254;BME280;32542;52.832;13.816;2023-04-19T05:30:22;102503.09;;;21.65;46.16
17254;BME280;32542;52.832;13.816;2023-04-19T05:33:26;102498.69;;;21.64;46.23
17254;BME280;32542;52.832;13.816;2023-04-19T05:36:30;102501.34;;;21.64;46.26
17254;BME280;32542;52.832;13.816;2023-04-19T05:39:33;102506.69;;;21.64;46.26
17254;BME280;32542;52.832;13.816;2023-04-19T05:42:37;102495.13;;;21.64;46.29
17254;BME280;32542;52.832;13.816;2023-04-19T05:45:42;102499.56;;;21.65;46.20
17254;BME280;32542;52.832;13.816;2023-04-19T05:48:45;102496.91;;;21.65;46.29
17254;BME280;32542;52.832;13.816;2023-04-19T05:52:06;102488.91;;;21.65;46.36
17254;BME280;32542;52.832;13.816;2023-04-19T05:55:17;102492.41;;;21.65;46.38
17254;BME280;32542;52.832;13.816;2023-04-19T05:58:20;102492.41;;;21.65;46.38
17254;BME280;32542;52.832;13.816;2023-04-19T06:01:25;102480.03;;;21.64;46.39
17254;BME280;32542;52.832;13.816;2023-04-19T06:04:29;102481.81;;;21.64;46.36
17254;BME280;32542;52.832;13.816;2023-04-19T06:07:32;102483.59;;;21.63;46.48
17254;BME280;32542;52.832;13.816;2023-04-19T06:10:44;102483.59;;;21.63;46.32
17254;BME280;32542;52.832;13.816;2023-04-19T06:13:58;102477.41;;;21.63;46.51
17254;BME280;32542;52.832;13.816;2023-04-19T06:17:03;102477.41;;;21.63;46.50
17254;BME280;32542;52.832;13.816;2023-04-19T06:20:07;102473.81;;;21.64;46.41
17254;BME280;32542;52.832;13.816;2023-04-19T06:23:11;102475.56;;;21.65;46.43
17254;BME280;32542;52.832;13.816;2023-04-19T06:26:15;102475.56;;;21.65;nan
17254;BME280;32542;52.832;13.816;2023-04-19T06:29:18;102467.56;;;21.65;46.42
17254;BME280;32542;52.832;13.816;2023-04-19T06:32:24;102459.56;;;21.65;46.52
17254;BME280;32542;52.832;13.816;2023-04-19T06:35:27;102464.91;;;21.65;46.33
17254;BME280;32542;52.832;13.816;2023-04-19T06:38:30;102462.25;;;21.65;46.54
17254;BME280;32542;52.832;13.816;2023-04-19T06:41:33;102464.91;;;21.65;46.57
17254;BME280;32542;52.832;13.816;2023-04-19T06:44:36;102459.56;;;21.65;46.51
17254;BME280;32542;52.832;13.816;2023-04-19T06:47:40;102463.13;;;21.64;46.57
17254;BME280;32542;52.832;13.816;2023-04-19T06:50:43;102457.81;;;21.64;46.48
17254;BME280;32542;52.832;13.816;2023-04-19T06:53:46;102447.13;;;21.64;46.50
17254;BME280;32542;52.832;13.816;2023-04-19T06:56:50;102436.47;;;21.64;46.59
17254;BME280;32542;52.832;13.816;2023-04-19T06:59:53;102432.03;;;21.64;46.58
17254;BME280;32542;52.832;13.816;2023-04-19T07:02:57;102430.25;;;21.63;46.55
17254;BME280;32542;52.832;13.816;2023-04-19T07:06:02;102425.81;;;21.64;46.44
17254;BME280;32542;52.832;13.816;2023-04-19T07:09:06;102425.81;;;21.64;46.44
17254;BME280;32542;52.832;13.816;2023-04-19T07:12:09;102423.09;;;21.65;46.48
17254;BME280;32542;52.832;13.816;2023-04-19T07:15:12;102421.31;;;21.66;46.50
17254;BME280;32542;52.832;13.816;2023-04-19T07:18:16;102416.91;;;21.65;46.46
17254;BME280;32542;52.832;13.816;2023-04-19T07:21:19;102419.56;;;21.65;46.57
17254;BME280;32542;52.832;13.816;2023-04-19T07:24:23;102417.81;;;21.64;46.59
17254;BME280;32542;52.832;13.816;2023-04-19T07:27:28;102413.38;;;21.64;46.60
17254;BME280;32542;52.832;13.816;2023-04-19T07:30:31;102419.59;;;21.63;46.52
17254;BME280;32542;52.832;13.816;2023-04-19T07:33:35;102404.53;;;21.62;46.19
17254;BME280;32542;52.832;13.816;2023-04-19T07:36:38;102407.16;;;21.64;45.85
17254;BME280;32542;52.832;13.816;2023-04-19T07:39:41;102411.63;;;21.62;45.73
17254;BME280;32542;52.832;13.816;2023-04-19T07:42:44;102411.63;;;21.62;45.56
17254;BME280;32542;52.832;13.816;2023-04-19T07:45:47;102397.41;;;21.63;45.66
17254;BME280;32542;52.832;13.816;2023-04-19T07:48:51;102386.75;;;21.63;45.45
17254;BME280;32542;52.832;13.816;2023-04-19T07:51:54;102392.09;;;21.63;45.31
17254;BME280;32542;52.832;13.816;2023-04-19T07:54:57;102392.97;;;21.62;45.31
17254;BME280;32542;52.832;13.816;2023-04-19T07:58:00;102387.66;;;21.62;45.30
17254;BME280;32542;52.832;13.816;2023-04-19T08:01:04;102390.31;;;21.62;45.34
17254;BME280;32542;52.832;13.816;2023-04-19T08:04:09;102390.31;;;21.62;45.22
17254;BME280;32542;52.832;13.816;2023-04-19T08:07:12;102398.34;;;21.60;45.16
17254;BME280;32542;52.832;13.816;2023-04-19T08:10:15;102398.34;;;21.60;45.20
17254;BME280;32542;52.832;13.816;2023-04-19T08:13:18;102380.59;;;21.59;45.20
17254;BME280;32542;52.832;13.816;2023-04-19T08:16:21;102377.03;;;21.59;45.08
17254;BME280;32542;52.832;13.816;2023-04-19T08:19:45;102385.03;;;21.59;45.01
17254;BME280;32542;52.832;13.816;2023-04-19T08:22:50;102375.25;;;21.59;45.05
17254;BME280;32542;52.832;13.816;2023-04-19T08:25:53;102382.38;;;21.60;45.01
17254;BME280;32542;52.832;13.816;2023-04-19T08:28:56;102372.59;;;21.61;45.00
17254;BME280;32542;52.832;13.816;2023-04-19T08:31:59;102369.03;;;21.60;44.97
17254;BME280;32542;52.832;13.816;2023-04-19T08:35:04;102356.59;;;21.61;44.85
17254;BME280;32542;52.832;13.816;2023-04-19T08:38:09;102350.38;;;21.60;44.84
17254;BME280;32542;52.832;13.816;2023-04-19T08:41:12;102354.81;;;21.60;44.77
17254;BME280;32542;52.832;13.816;2023-04-19T08:44:16;102349.50;;;21.60;44.76
17254;BME280;32542;52.832;13.816;2023-04-19T08:47:37;102357.53;;;21.58;44.74
17254;BME280;32542;52.832;13.816;2023-04-19T08:50:44;102369.94;;;21.59;44.82
17254;BME280;32542;52.832;13.816;2023-04-19T08:54:05;102353.06;;;21.59;44.76
17254;BME280;32542;52.832;13.816;2023-04-19T08:57:09;102372.66;;;21.58;44.70
17254;BME280;32542;52.832;13.816;2023-04-19T09:00:13;102353.06;;;21.59;44.78
17254;BME280;32542;52.832;13.816;2023-04-19T09:03:16;102357.53;;;21.58;44.97
17254;BME280;32542;52.832;13.816;2023-04-19T09:06:21;102344.22;;;21.58;44.62
17254;BME280;32542;52.832;13.816;2023-04-19T09:09:26;102346.03;;;21.56;43.64
17254;BME280;32542;52.832;13.816;2023-04-19T09:12:41;102348.72;;;21.55;42.96
17254;BME280;32542;52.832;13.816;2023-04-19T09:15:44;102336.28;;;21.55;42.89
17254;BME280;32542;52.832;13.816;2023-04-19T09:18:55;102330.06;;;21.55;43.07
17254;BME280;32542;52.832;13.816;2023-04-19T09:22:21;102338.03;;;21.56;43.47
17254;BME280;32542;52.832;13.816;2023-04-19T09:25:25;102323.72;;;21.60;43.56
17254;BME280;32542;52.832;13.816;2023-04-19T09:28:31;102320.03;;;21.64;43.85
17254;BME280;32542;52.832;13.816;2023-04-19T09:31:35;102316.44;;;21.67;43.92
17254;BME280;32542;52.832;13.816;2023-04-19T09:34:49;102310.09;;;21.71;43.97
17254;BME280;32542;52.832;13.816;2023-04-19T09:38:00;102306.41;;;21.75;44.14
17254;BME280;32542;52.832;13.816;2023-04-19T09:41:07;102295.69;;;21.76;44.13
17254;BME280;32542;52.832;13.816;2023-04-19T09:44:12;102305.47;;;21.77;44.29
17254;BME280;32542;52.832;13.816;2023-04-19T09:47:23;102295.66;;;21.78;44.35
17254;BME280;32542;52.832;13.816;2023-04-19T09:50:26;102297.41;;;21.79;44.47
17254;BME280;32542;52.832;13.816;2023-04-19T09:53:31;102300.09;;;21.79;44.50
17254;BME280;32542;52.832;13.816;2023-04-19T09:56:36;102300.13;;;21.77;44.65
17254;BME280;32542;52.832;13.816;2023-04-19T09:59:40;102294.81;;;21.77;44.85
17254;BME280;32542;52.832;13.816;2023-04-19T10:02:43;102288.59;;;21.77;44.84
17254;BME280;32542;52.832;13.816;2023-04-19T10:05:50;102290.31;;;21.78;44.97
17254;BME280;32542;52.832;13.816;2023-04-19T10:08:55;102292.13;;;21.77;45.14
17254;BME280;32542;52.832;13.816;2023-04-19T10:11:59;102294.81;;;21.77;45.24
17254;BME280;32542;52.832;13.816;2023-04-19T10:15:23;102287.66;;;21.78;45.18
17254;BME280;32542;52.832;13.816;2023-04-19T10:18:43;102285.88;;;21.78;45.21
17254;BME280;32542;52.832;13.816;2023-04-19T10:21:47;102300.97;;;21.78;45.09
17254;BME280;32542;52.832;13.816;2023-04-19T10:25:10;102279.66;;;21.78;45.01
17254;BME280;32542;52.832;13.816;2023-04-19T10:28:14;102274.31;;;21.78;45.05
17254;BME280;32542;52.832;13.816;2023-04-19T10:31:19;102279.66;;;21.78;45.19
17254;BME280;32542;52.832;13.816;2023-04-19T10:34:35;102276.09;;;21.79;45.23
17254;BME280;32542;52.832;13.816;2023-04-19T10:37:39;102268.97;;;21.78;45.27
17254;BME280;32542;52.832;13.816;2023-04-19T10:40:55;102258.38;;;21.76;45.43
17254;BME280;32542;52.832;13.816;2023-04-19T10:44:10;102267.25;;;21.77;45.51
17254;BME280;32542;52.832;13.816;2023-04-19T10:47:39;102257.50;;;21.76;45.62
17254;BME280;32542;52.832;13.816;2023-04-19T10:50:58;102253.97;;;21.75;45.77
17254;BME280;32542;52.832;13.816;2023-04-19T10:54:02;102249.50;;;21.76;45.84
17254;BME280;32542;52.832;13.816;2023-04-19T10:57:07;102255.69;;;21.76;45.98
17254;BME280;32542;52.832;13.816;2023-04-19T11:00:18;102249.47;;;21.77;46.15
17254;BME280;32542;52.832;13.816;2023-04-19T11:03:50;102253.91;;;21.77;46.26
17254;BME280;32542;52.832;13.816;2023-04-19T11:06:59;102250.31;;;21.78;46.38
17254;BME280;32542;52.832;13.816;2023-04-19T11:10:03;102249.47;;;21.77;47.65
17254;BME280;32542;52.832;13.816;2023-04-19T11:13:08;102246.81;;;21.77;47.93
17254;BME280;32542;52.832;13.816;2023-04-19T11:16:11;102236.97;;;21.78;47.95
17254;BME280;32542;52.832;13.816;2023-04-19T11:19:14;102235.16;;;21.80;48.38
17254;BME280;32542;52.832;13.816;2023-04-19T11:22:23;102229.81;;;21.80;48.15
17254;BME280;32542;52.832;13.816;2023-04-19T11:25:27;102229.81;;;21.80;48.37
17254;BME280;32542;52.832;13.816;2023-04-19T11:28:33;102222.69;;;21.81;47.73
17254;BME280;32542;52.832;13.816;2023-04-19T11:31:36;102236.91;;;21.81;47.64
17254;BME280;32542;52.832;13.816;2023-04-19T11:34:39;102212.03;;;21.82;47.56
17254;BME280;32542;52.832;13.816;2023-04-19T11:37:43;102220.91;;;21.81;47.47
17254;BME280;32542;52.832;13.816;2023-04-19T11:40:45;102210.25;;;21.81;47.63
17254;BME280;32542;52.832;13.816;2023-04-19T11:43:50;102212.03;;;21.82;47.46
17254;BME280;32542;52.832;13.816;2023-04-19T11:46:58;102201.38;;;21.82;47.57
17254;BME280;32542;52.832;13.816;2023-04-19T11:50:29;102204.91;;;21.81;47.58
17254;BME280;32542;52.832;13.816;2023-04-19T11:53:32;102188.91;;;21.81;47.65
17254;BME280;32542;52.832;13.816;2023-04-19T11:56:35;102172.03;;;21.81;47.67
17254;BME280;32542;52.832;13.816;2023-04-19T12:00:05;102172.91;;;21.81;47.84
17254;BME280;32542;52.832;13.816;2023-04-19T12:03:14;102164.03;;;21.81;47.67
17254;BME280;32542;52.832;13.816;2023-04-19T12:06:22;102167.63;;;21.80;47.83
17254;BME280;32542;52.832;13.816;2023-04-19T12:09:26;102157.78;;;21.82;47.77
17254;BME280;32542;52.832;13.816;2023-04-19T12:12:32;102148.91;;;21.81;47.88
17254;BME280;32542;52.832;13.816;2023-04-19T12:15:43;102148.91;;;21.81;47.78
17254;BME280;32542;52.832;13.816;2023-04-19T12:18:48;102151.56;;;21.81;47.81
17254;BME280;32542;52.832;13.816;2023-04-19T12:21:51;102139.13;;;21.80;47.89
17254;BME280;32542;52.832;13.816;2023-04-19T12:24:54;102140.03;;;21.81;47.92
17254;BME280;32542;52.832;13.816;2023-04-19T12:27:58;102139.13;;;21.80;47.87
17254;BME280;32542;52.832;13.816;2023-04-19T12:31:02;102130.28;;;21.80;47.85
17254;BME280;32542;52.832;13.816;2023-04-19T12:34:05;102142.75;;;21.79;47.86
17254;BME280;32542;52.832;13.816;2023-04-19T12:37:08;102131.19;;;21.78;47.82
17254;BME280;32542;52.832;13.816;2023-04-19T12:40:12;102126.75;;;21.79;47.83
17254;BME280;32542;52.832;13.816;2023-04-19T12:43:15;102131.19;;;21.78;47.75
17254;BME280;32542;52.832;13.816;2023-04-19T12:46:19;102116.06;;;21.79;47.74
17254;BME280;32542;52.832;13.816;2023-04-19T12:49:23;102129.41;;;21.79;47.76
17254;BME280;32542;52.832;13.816;2023-04-19T12:52:26;102130.28;;;21.80;47.78
17254;BME280;32542;52.832;13.816;2023-04-19T12:55:29;102116.06;;;21.79;47.70
17254;BME280;32542;52.832;13.816;2023-04-19T12:58:32;102121.41;;;21.79;47.82
17254;BME280;32542;52.832;13.816;2023-04-19T13:01:36;102117.88;;;21.78;47.75
17254;BME280;32542;52.832;13.816;2023-04-19T13:04:39;102118.75;;;21.79;47.70
17254;BME280;32542;52.832;13.816;2023-04-19T13:07:42;102114.31;;;21.78;47.75
17254;BME280;32542;52.832;13.816;2023-04-19T13:10:45;102113.47;;;21.77;47.75
17254;BME280;32542;52.832;13.816;2023-04-19T13:13:49;102115.25;;;21.77;47.76
17254;BME280;32542;52.832;13.816;2023-04-19T13:16:54;102095.72;;;21.76;47.69
17254;BME280;32542;52.832;13.816;2023-04-19T13:19:57;102091.25;;;21.77;47.65
17254;BME280;32542;52.832;13.816;2023-04-19T13:23:00;102091.25;;;21.77;47.61
17254;BME280;32542;52.832;13.816;2023-04-19T13:26:03;102096.59;;;21.77;47.64
17254;BME280;32542;52.832;13.816;2023-04-19T13:29:06;102092.13;;;21.77;47.69
17254;BME280;32542;52.832;13.816;2023-04-19T13:32:11;102082.31;;;21.78;47.63
17254;BME280;32542;52.832;13.816;2023-04-19T13:35:14;102081.47;;;21.77;47.62
17254;BME280;32542;52.832;13.816;2023-04-19T13:38:17;102085.91;;;21.77;47.60
17254;BME280;32542;52.832;13.816;2023-04-19T13:41:20;102069.91;;;21.77;47.67
17254;BME280;32542;52.832;13.816;2023-04-19T13:44:23;102067.25;;;21.77;47.67
17254;BME280;32542;52.832;13.816;2023-04-19T13:47:27;102065.50;;;21.76;47.68
17254;BME280;32542;52.832;13.816;2023-04-19T13:50:30;102061.97;;;21.75;47.60
17254;BME280;32542;52.832;13.816;2023-04-19T13:53:33;102062.81;;;21.76;47.63
17254;BME280;32542;52.832;13.816;2023-04-19T13:56:36;102045.09;;;21.75;47.71
17254;BME280;32542;52.832;13.816;2023-04-19T13:59:39;102040.66;;;21.75;47.60
17254;BME280;32542;52.832;13.816;2023-04-19T14:02:44;102061.97;;;21.75;47.65
17254;BME280;32542;52.832;13.816;2023-04-19T14:05:49;102066.38;;;21.76;47.51
17254;BME280;32542;52.832;13.816;2023-04-19T14:08:52;102062.81;;;21.76;47.54
17254;BME280;32542;52.832;13.816;2023-04-19T14:11:55;102069.03;;;21.76;47.55
17254;BME280;32542;52.832;13.816;2023-04-19T14:14:58;102073.50;;;21.76;47.35
17254;BME280;32542;52.832;13.816;2023-04-19T14:18:02;102059.31;;;21.75;47.42
17254;BME280;32542;52.832;13.816;2023-04-19T14:21:06;102069.09;;;21.75;47.42
17254;BME280;32542;52.832;13.816;2023-04-19T14:24:09;102074.44;;;21.75;47.54
17254;BME280;32542;52.832;13.816;2023-04-19T14:27:11;102075.34;;;21.74;47.48
17254;BME280;32542;52.832;13.816;2023-04-19T14:30:14;102102.00;;;21.74;47.45
17254;BME280;32542;52.832;13.816;2023-04-19T14:33:19;102090.50;;;21.73;47.42
17254;BME280;32542;52.832;13.816;2023-04-19T14:36:22;102084.28;;;21.73;47.35
17254;BME280;32542;52.832;13.816;2023-04-19T14:39:25;102083.34;;;21.74;47.47
17254;BME280;32542;52.832;13.816;2023-04-19T14:42:28;102088.66;;;21.74;47.43
17254;BME280;32542;52.832;13.816;2023-04-19T14:45:31;102085.16;;;21.73;47.33
17254;BME280;32542;52.832;13.816;2023-04-19T14:48:35;102079.81;;;21.73;47.35
17254;BME280;32542;52.832;13.816;2023-04-19T14:51:38;102085.16;;;21.73;47.36
17254;BME280;32542;52.832;13.816;2023-04-19T14:54:41;102074.50;;;21.73;47.44
17254;BME280;32542;52.832;13.816;2023-04-19T14:57:44;102070.00;;;21.74;47.36
17254;BME280;32542;52.832;13.816;2023-04-19T15:00:46;102069.16;;;21.73;47.40
17254;BME280;32542;52.832;13.816;2023-04-19T15:03:51;102057.59;;;21.73;47.48
17254;BME280;32542;52.832;13.816;2023-04-19T15:06:54;102062.06;;;21.72;47.52
17254;BME280;32542;52.832;13.816;2023-04-19T15:09:57;102052.34;;;21.71;47.50
17254;BME280;32542;52.832;13.816;2023-04-19T15:13:00;102050.50;;;21.72;47.46
17254;BME280;32542;52.832;13.816;2023-04-19T15:16:04;102053.19;;;21.72;47.40
17254;BME280;32542;52.832;13.816;2023-04-19T15:19:09;102047.84;;;21.72;47.37
17254;BME280;32542;52.832;13.816;2023-04-19T15:22:12;102043.41;;;21.72;47.43
17254;BME280;32542;52.832;13.816;2023-04-19T15:25:15;102040.69;;;21.74;47.37
17254;BME280;32542;52.832;13.816;2023-04-19T15:28:18;102037.16;;;21.73;47.37
17254;BME280;32542;52.832;13.816;2023-04-19T15:31:21;102030.94;;;21.73;47.36
17254;BME280;32542;52.832;13.816;2023-04-19T15:34:25;102021.09;;;21.75;47.35
17254;BME280;32542;52.832;13.816;2023-04-19T15:37:28;102022.00;;;21.74;47.26
17254;BME280;32542;52.832;13.816;2023-04-19T15:40:31;102023.81;;;21.73;47.36
17254;BME280;32542;52.832;13.816;2023-04-19T15:43:34;102017.63;;;21.73;47.28
17254;BME280;32542;52.832;13.816;2023-04-19T15:46:37;102009.63;;;21.73;47.28
17254;BME280;32542;52.832;13.816;2023-04-19T15:49:42;102015.84;;;21.73;47.33
17254;BME280;32542;52.832;13.816;2023-04-19T15:52:47;102011.34;;;21.74;47.33
17254;BME280;32542;52.832;13.816;2023-04-19T15:55:50;102004.28;;;21.73;47.30